Time;durP1;ratioP1;P1;durP2;ratioP2;P2;SDS_P1;SDS_P2;PMS_P1;PMS_P2;Temp;Humidity;BMP_temperature;BMP_pressure;BME280_temperature;BME280_humidity;BME280_pressure;Samples;Min_cycle;Max_cycle;Signal;HPM_P1;HPM_P2
2021/07/08 00:01:34;;;;;;;5.60;1.30;;;;;;;20.98;100.00;100787.17;1753757;81;20931;-66
2021/07/08 00:04:01;;;;;;;3.40;1.30;;;;;;;21.26;100.00;100793.77;1749484;81;21097;-66
2021/07/08 00:06:27;;;;;;;2.83;1.40;;;;;;;21.09;100.00;100792.41;1726179;82;21184;-62
2021/07/08 00:08:55;;;;;;;4.10;1.70;;;;;;;20.93;100.00;100797.17;1750363;81;21355;-61
2021/07/08 00:11:21;;;;;;;4.17;1.10;;;;;;;21.10;100.00;100799.34;1749557;81;21860;-64
2021/07/08 00:13:48;;;;;;;4.17;1.47;;;;;;;20.81;100.00;100795.91;1751844;81;21501;-65
2021/07/08 00:16:15;;;;;;;3.00;1.30;;;;;;;20.80;100.00;100804.11;1751430;81;20939;-65
2021/07/08 00:18:43;;;;;;;3.07;1.10;;;;;;;20.89;100.00;100800.81;1749180;81;21528;-65
2021/07/08 00:21:12;;;;;;;3.80;1.57;;;;;;;21.09;100.00;100806.19;1725957;82;21091;-66
2021/07/08 00:23:38;;;;;;;4.33;1.60;;;;;;;21.18;100.00;100806.63;1726184;82;22183;-65
2021/07/08 00:26:04;;;;;;;5.43;1.20;;;;;;;21.18;100.00;100803.97;1750843;81;20995;-66
2021/07/08 00:28:33;;;;;;;4.43;1.47;;;;;;;21.17;100.00;100808.44;1749788;81;20923;-63
2021/07/08 00:30:59;;;;;;;4.13;1.73;;;;;;;21.26;100.00;100811.00;1725743;82;21086;-63
2021/07/08 00:33:26;;;;;;;6.63;1.53;;;;;;;21.15;100.00;100818.50;1747682;81;21641;-67
2021/07/08 00:35:52;;;;;;;3.97;2.03;;;;;;;21.25;100.00;100814.70;1749892;81;20977;-67
2021/07/08 00:38:20;;;;;;;7.97;2.50;;;;;;;21.01;100.00;100820.64;1749438;81;21015;-67
2021/07/08 00:40:46;;;;;;;6.00;2.77;;;;;;;21.16;100.00;100817.97;1751227;81;21031;-67
2021/07/08 00:43:13;;;;;;;3.47;1.93;;;;;;;21.23;100.00;100819.95;1725696;82;21041;-63
2021/07/08 00:45:40;;;;;;;5.73;2.13;;;;;;;20.68;100.00;100821.87;1699262;84;22076;-66
2021/07/08 00:48:07;;;;;;;3.63;1.87;;;;;;;20.83;100.00;100813.68;1750316;81;21496;-66
2021/07/08 00:50:43;;;;;;;3.57;2.17;;;;;;;20.68;100.00;100819.22;1726873;82;20927;-67
2021/07/08 00:53:13;;;;;;;4.13;1.73;;;;;;;20.63;100.00;100823.38;1750129;81;20930;-67
2021/07/08 00:55:42;;;;;;;3.43;1.60;;;;;;;20.56;100.00;100824.03;1749260;81;21502;-66
2021/07/08 00:58:10;;;;;;;6.42;1.82;;;;;;;20.50;100.00;100824.99;1749460;81;21760;-65
2021/07/08 01:00:37;;;;;;;4.53;1.70;;;;;;;20.28;100.00;100818.16;1744950;81;20935;-68
2021/07/08 01:03:08;;;;;;;3.67;1.77;;;;;;;20.59;100.00;100822.25;1751167;81;21556;-64
2021/07/08 01:05:34;;;;;;;2.63;1.40;;;;;;;20.17;100.00;100834.34;1765718;80;21877;-67
2021/07/08 01:08:04;;;;;;;5.07;1.47;;;;;;;20.03;100.00;100834.29;1758507;81;21034;-66
2021/07/08 01:10:30;;;;;;;2.77;1.10;;;;;;;20.36;100.00;100827.58;1759541;81;21774;-67
2021/07/08 01:12:59;;;;;;;4.40;1.40;;;;;;;20.39;100.00;100825.80;1759189;81;20978;-62
2021/07/08 01:15:25;;;;;;;2.97;1.60;;;;;;;20.41;100.00;100821.05;1761891;81;20915;-66
2021/07/08 01:17:53;;;;;;;4.13;1.40;;;;;;;20.53;100.00;100831.64;1755743;81;21090;-66
2021/07/08 01:20:21;;;;;;;3.20;1.60;;;;;;;20.52;100.00;100834.02;1760643;81;20959;-67
2021/07/08 01:22:48;;;;;;;3.23;1.47;;;;;;;20.50;100.00;100836.11;1758825;81;22112;-66
2021/07/08 01:25:18;;;;;;;5.47;1.53;;;;;;;20.45;100.00;100837.28;1760306;81;21089;-67
2021/07/08 01:27:44;;;;;;;4.73;1.30;;;;;;;20.41;100.00;100839.06;1764962;81;21145;-66
2021/07/08 01:30:12;;;;;;;4.80;1.50;;;;;;;20.50;100.00;100837.44;1756266;81;21068;-62
2021/07/08 01:32:39;;;;;;;5.17;1.67;;;;;;;20.49;100.00;100845.88;1755565;81;21051;-64
2021/07/08 01:35:07;;;;;;;6.00;2.00;;;;;;;20.54;100.00;100847.84;1736114;81;21218;-67
2021/07/08 01:37:33;;;;;;;5.23;2.07;;;;;;;20.51;100.00;100839.84;1743164;81;21822;-66
2021/07/08 01:40:05;;;;;;;4.30;1.60;;;;;;;20.70;100.00;100847.09;1736057;81;20939;-66
2021/07/08 01:42:33;;;;;;;2.97;1.53;;;;;;;20.75;100.00;100844.53;1738436;81;21089;-67
2021/07/08 01:44:59;;;;;;;4.17;2.13;;;;;;;20.42;100.00;100839.90;1737855;81;21082;-66
2021/07/08 01:47:26;;;;;;;5.77;2.23;;;;;;;20.29;100.00;100853.38;1741866;81;22331;-66
2021/07/08 01:49:53;;;;;;;5.23;1.60;;;;;;;19.78;100.00;100855.70;1736786;81;21481;-67
2021/07/08 01:52:19;;;;;;;3.37;1.37;;;;;;;19.65;100.00;100859.36;1683094;84;21058;-62
2021/07/08 01:54:47;;;;;;;2.57;1.00;;;;;;;19.88;100.00;100860.41;1737520;81;21018;-67
2021/07/08 01:57:14;;;;;;;3.70;1.70;;;;;;;19.89;100.00;100858.88;1741539;81;21085;-66
2021/07/08 01:59:40;;;;;;;3.87;1.37;;;;;;;20.14;100.00;100853.33;1741165;81;21150;-66
2021/07/08 02:02:08;;;;;;;3.70;1.40;;;;;;;20.52;100.00;100853.87;1697367;83;20868;-66
2021/07/08 02:04:34;;;;;;;4.40;2.23;;;;;;;20.08;100.00;100864.86;1712093;83;21024;-62
2021/07/08 02:07:01;;;;;;;5.57;1.47;;;;;;;20.42;100.00;100866.38;1709421;83;21678;-66
2021/07/08 02:09:30;;;;;;;5.20;1.60;;;;;;;20.79;100.00;100865.54;1712489;83;21549;-65
2021/07/08 02:11:58;;;;;;;3.47;1.40;;;;;;;21.37;100.00;100869.02;1708098;83;21143;-63
2021/07/08 02:14:27;;;;;;;3.27;1.13;;;;;;;21.66;100.00;100870.27;1714176;83;21572;-62
2021/07/08 02:16:55;;;;;;;2.67;1.40;;;;;;;22.18;100.00;100867.35;1714332;83;21102;-66
2021/07/08 02:19:22;;;;;;;5.00;1.30;;;;;;;22.62;100.00;100872.70;1712481;83;21956;-65
2021/07/08 02:21:50;;;;;;;2.40;1.10;;;;;;;23.12;100.00;100874.33;1708889;83;21082;-65
2021/07/08 02:24:17;;;;;;;4.17;1.30;;;;;;;23.71;93.33;100868.98;1711649;83;21639;-64
2021/07/08 02:26:43;;;;;;;3.03;1.30;;;;;;;23.58;91.83;100875.53;1710191;83;20995;-61
2021/07/08 02:29:11;;;;;;;3.23;1.50;;;;;;;23.62;91.63;100879.81;1688656;83;21456;-63
2021/07/08 02:31:37;;;;;;;5.10;1.30;;;;;;;23.75;90.75;100876.73;1717897;83;21169;-64
2021/07/08 02:34:04;;;;;;;2.20;1.17;;;;;;;24.21;84.44;100877.84;1714627;83;21095;-66
2021/07/08 02:36:31;;;;;;;2.63;1.40;;;;;;;24.43;79.85;100878.23;1750816;81;21534;-65
2021/07/08 02:38:57;;;;;;;3.37;1.50;;;;;;;24.84;75.79;100879.17;1749023;81;20887;-64
2021/07/08 02:41:24;;;;;;;3.10;1.50;;;;;;;25.17;68.19;100881.15;1748647;81;21516;-64
2021/07/08 02:43:51;;;;;;;3.93;1.30;;;;;;;25.42;66.23;100886.52;1751000;81;21074;-67
2021/07/08 02:46:18;;;;;;;2.80;1.50;;;;;;;25.86;61.06;100883.30;1749874;80;21054;-65
2021/07/08 02:48:44;;;;;;;7.97;1.57;;;;;;;25.96;59.76;100888.63;1750583;81;21147;-64
2021/07/08 02:51:11;;;;;;;3.50;1.40;;;;;;;26.10;59.40;100890.72;1750301;81;20990;-63
2021/07/08 02:53:38;;;;;;;2.93;1.50;;;;;;;26.43;55.53;100892.76;1752597;81;21101;-64
2021/07/08 02:56:04;;;;;;;4.93;1.40;;;;;;;26.84;54.22;100895.28;1748828;81;21100;-64
2021/07/08 02:58:31;;;;;;;2.20;1.33;;;;;;;27.00;52.87;100897.86;1752150;81;21085;-63
2021/07/08 03:00:58;;;;;;;5.45;1.52;;;;;;;27.39;50.75;100897.37;1784422;78;21098;-60
2021/07/08 03:03:24;;;;;;;3.33;1.62;;;;;;;27.38;50.48;100895.75;1801421;78;21434;-64
2021/07/08 03:05:51;;;;;;;3.10;1.87;;;;;;;27.71;49.12;100890.66;1761650;79;21812;-64
2021/07/08 03:08:19;;;;;;;4.08;1.75;;;;;;;27.92;48.09;100899.86;1762000;80;37995;-65
2021/07/08 03:10:47;;;;;;;2.65;1.42;;;;;;;28.25;48.04;100899.52;1766993;79;21013;-60
2021/07/08 03:13:14;;;;;;;4.60;1.42;;;;;;;28.55;45.48;100897.04;1728705;81;21647;-64
2021/07/08 03:15:41;;;;;;;5.95;1.77;;;;;;;28.76;44.76;100902.41;1767147;81;21471;-62
2021/07/08 03:18:08;;;;;;;3.10;2.22;;;;;;;29.00;43.39;100898.88;1730102;81;21133;-63
2021/07/08 03:20:35;;;;;;;4.53;1.80;;;;;;;29.27;42.79;100901.67;1767316;81;21859;-61
2021/07/08 03:23:04;;;;;;;4.05;1.65;;;;;;;29.26;42.72;100907.34;1764189;79;21671;-63
2021/07/08 03:25:31;;;;;;;3.47;1.40;;;;;;;29.46;42.06;100903.53;1767664;81;22250;-63
2021/07/08 03:27:58;;;;;;;3.95;1.62;;;;;;;29.79;40.90;100907.83;1761728;79;21467;-64
2021/07/08 03:30:27;;;;;;;4.55;1.50;;;;;;;29.84;40.88;100904.25;1765050;79;21042;-63
2021/07/08 03:32:54;;;;;;;2.52;1.50;;;;;;;30.33;39.28;100905.50;1767243;81;20899;-60
2021/07/08 03:35:20;;;;;;;2.65;1.40;;;;;;;30.49;38.77;100908.11;1750142;79;20909;-63
2021/07/08 03:37:49;;;;;;;2.75;1.40;;;;;;;30.59;38.85;100914.39;1753094;79;21964;-63
2021/07/08 03:40:16;;;;;;;3.85;1.57;;;;;;;30.12;38.94;100915.02;1767097;81;21507;-66
2021/07/08 03:42:44;;;;;;;4.03;1.52;;;;;;;30.06;39.70;100918.36;1729837;82;21073;-63
2021/07/08 03:45:12;;;;;;;3.50;1.65;;;;;;;30.46;38.80;100924.87;1766127;81;20957;-60
2021/07/08 03:47:40;;;;;;;5.45;1.57;;;;;;;30.61;38.49;100921.08;1761345;81;20969;-63
2021/07/08 03:50:08;;;;;;;4.00;1.10;;;;;;;30.60;38.56;100924.84;1767131;81;21128;-64
2021/07/08 03:52:38;;;;;;;4.65;1.62;;;;;;;30.90;38.40;100920.73;1764803;81;21050;-64
2021/07/08 03:55:08;;;;;;;3.90;1.50;;;;;;;31.25;37.28;100927.73;1765254;79;20982;-61
2021/07/08 03:57:35;;;;;;;2.70;1.10;;;;;;;31.35;37.71;100930.78;1731260;81;21216;-64
2021/07/08 04:00:05;;;;;;;3.02;1.30;;;;;;;31.57;37.09;100927.28;1728917;81;21081;-64
2021/07/08 04:02:33;;;;;;;4.55;1.47;;;;;;;31.47;36.70;100933.70;1716705;82;21144;-64
2021/07/08 04:04:59;;;;;;;5.12;1.10;;;;;;;31.95;36.05;100934.41;1724968;82;21081;-61
2021/07/08 04:07:28;;;;;;;3.90;1.60;;;;;;;32.11;35.58;100928.84;1745623;81;21005;-66
2021/07/08 04:09:54;;;;;;;4.20;1.40;;;;;;;32.21;35.65;100936.66;1746388;81;20964;-65
2021/07/08 04:12:21;;;;;;;2.27;1.17;;;;;;;32.39;35.46;100938.05;1724668;82;20975;-64
2021/07/08 04:14:48;;;;;;;2.15;1.30;;;;;;;32.84;34.29;100938.63;1728495;81;22327;-65
2021/07/08 04:17:14;;;;;;;2.37;1.15;;;;;;;32.43;34.79;100939.86;1781181;78;21005;-65
2021/07/08 04:19:41;;;;;;;2.30;1.20;;;;;;;32.40;34.97;100940.48;1781579;78;20998;-63
2021/07/08 04:22:08;;;;;;;3.52;1.10;;;;;;;32.50;35.35;100943.42;1782436;80;21061;-64
2021/07/08 04:24:35;;;;;;;2.00;0.95;;;;;;;32.45;35.04;100943.58;1780218;80;21064;-64
2021/07/08 04:27:02;;;;;;;3.08;1.05;;;;;;;32.43;35.34;100941.20;1780338;80;21100;-63
2021/07/08 04:29:28;;;;;;;3.02;1.00;;;;;;;32.52;34.47;100945.83;1744583;81;21462;-60
2021/07/08 04:31:55;;;;;;;3.08;1.60;;;;;;;32.56;34.57;100950.28;1743570;81;21002;-64
2021/07/08 04:34:21;;;;;;;3.10;1.85;;;;;;;32.45;35.86;100957.08;1726273;81;20995;-65
2021/07/08 04:36:49;;;;;;;4.20;1.80;;;;;;;32.59;36.11;100946.16;1728704;81;21074;-64
2021/07/08 04:39:15;;;;;;;2.55;1.45;;;;;;;32.54;36.07;100953.04;1742620;81;22141;-65
2021/07/08 04:41:42;;;;;;;3.55;1.30;;;;;;;32.67;35.05;100958.87;1742647;80;21401;-61
2021/07/08 04:44:09;;;;;;;2.35;1.30;;;;;;;32.43;35.28;100958.75;1744105;80;22325;-64
2021/07/08 04:46:36;;;;;;;2.95;1.27;;;;;;;32.48;36.07;100957.80;1731541;81;21003;-62
2021/07/08 04:49:02;;;;;;;4.00;1.72;;;;;;;32.72;35.88;100957.37;1723612;81;21034;-61
2021/07/08 04:51:29;;;;;;;3.70;1.77;;;;;;;33.37;35.47;100961.07;1733499;81;21159;-62
2021/07/08 04:53:55;;;;;;;2.45;1.50;;;;;;;33.64;33.90;100948.59;1788670;78;20896;-63
2021/07/08 04:56:22;;;;;;;3.22;1.50;;;;;;;33.45;34.31;100968.37;1751928;81;21664;-63
2021/07/08 04:58:49;;;;;;;4.30;1.47;;;;;;;33.52;34.39;100961.95;1732741;82;21634;-60
2021/07/08 05:01:15;;;;;;;2.70;1.40;;;;;;;33.80;33.79;100966.44;1788890;80;21072;-64
2021/07/08 05:03:42;;;;;;;5.65;1.70;;;;;;;34.04;34.52;100969.95;1788552;78;21156;-62
2021/07/08 05:06:09;;;;;;;3.62;1.55;;;;;;;34.10;33.28;100972.73;1751858;81;20958;-64
2021/07/08 05:08:37;;;;;;;3.22;1.50;;;;;;;34.01;33.73;100973.31;1734258;81;21524;-64
2021/07/08 05:11:05;;;;;;;2.55;1.37;;;;;;;34.60;33.34;100973.38;1787984;80;21623;-65
2021/07/08 05:13:32;;;;;;;8.10;1.80;;;;;;;35.05;32.53;100981.47;1786806;80;21876;-64
2021/07/08 05:15:59;;;;;;;3.30;1.42;;;;;;;35.05;32.41;100978.20;1788803;78;21528;-65
2021/07/08 05:18:26;;;;;;;3.10;2.00;;;;;;;35.01;32.02;100977.84;1788942;80;21006;-65
2021/07/08 05:20:52;;;;;;;3.20;1.52;;;;;;;34.65;32.53;100978.37;1750876;81;20962;-65
2021/07/08 05:26:01;;;;;;;3.67;1.80;;;;;;;34.75;33.69;100980.14;1732863;80;21164;-62
2021/07/08 05:28:28;;;;;;;3.45;1.72;;;;;;;35.06;32.83;100978.42;1786935;79;21015;-65
2021/07/08 05:30:55;;;;;;;4.05;1.70;;;;;;;35.04;32.25;100986.64;1785524;79;20922;-63
2021/07/08 05:33:22;;;;;;;2.95;1.55;;;;;;;35.15;32.82;100987.03;1787487;79;21013;-64
2021/07/08 05:35:49;;;;;;;2.80;1.50;;;;;;;35.29;32.28;100986.20;1781934;79;21080;-64
2021/07/08 05:38:16;;;;;;;5.28;1.90;;;;;;;35.37;32.03;100981.83;1778166;79;21135;-65
2021/07/08 05:40:42;;;;;;;3.00;1.32;;;;;;;35.37;32.56;100981.83;1779681;80;21087;-65
2021/07/08 05:43:09;;;;;;;2.92;1.70;;;;;;;35.52;32.17;100981.23;1760172;79;21083;-61
2021/07/08 05:45:37;;;;;;;2.85;1.60;;;;;;;35.81;31.48;100981.66;1756112;81;21142;-60
2021/07/08 05:48:05;;;;;;;3.45;1.40;;;;;;;35.90;31.49;100975.55;1761030;79;20945;-65
2021/07/08 05:50:31;;;;;;;2.90;1.52;;;;;;;35.86;31.87;100974.65;1761040;81;21972;-64
2021/07/08 05:52:58;;;;;;;5.50;2.05;;;;;;;36.21;31.06;100979.11;1760582;79;21129;-64
2021/07/08 05:55:24;;;;;;;2.47;1.50;;;;;;;35.94;32.18;100975.67;1757516;79;20979;-64
2021/07/08 05:57:51;;;;;;;6.05;3.20;;;;;;;35.17;33.13;100971.25;1760162;81;21070;-61
2021/07/08 06:00:19;;;;;;;4.85;3.58;;;;;;;35.82;32.92;100971.81;1760036;80;21040;-65
2021/07/08 06:02:46;;;;;;;5.28;3.70;;;;;;;36.21;32.26;100967.47;1761468;79;21017;-65
2021/07/08 06:05:13;;;;;;;5.35;2.30;;;;;;;36.50;31.61;100968.61;1762068;79;21148;-61
2021/07/08 06:07:40;;;;;;;8.93;3.42;;;;;;;36.44;31.65;100962.36;1755609;80;20937;-64
2021/07/08 06:10:10;;;;;;;3.25;1.70;;;;;;;36.92;32.08;100968.30;1773521;80;20957;-66
2021/07/08 06:12:39;;;;;;;3.52;1.37;;;;;;;37.26;29.36;100966.16;1774520;79;21485;-65
2021/07/08 06:15:07;;;;;;;5.05;1.55;;;;;;;37.25;29.22;100969.45;1779889;80;21010;-65
2021/07/08 06:17:34;;;;;;;2.92;1.10;;;;;;;37.04;29.16;100970.78;1779359;80;21602;-64
2021/07/08 06:20:01;;;;;;;2.85;1.27;;;;;;;36.71;29.30;100969.83;1757566;81;21572;-67
2021/07/08 06:22:28;;;;;;;4.17;1.45;;;;;;;36.21;29.48;100972.89;1755915;79;21892;-66
2021/07/08 06:24:55;;;;;;;3.20;1.45;;;;;;;36.12;30.78;100970.30;1768900;79;21484;-65
2021/07/08 06:27:21;;;;;;;1.92;1.25;;;;;;;36.52;30.26;100960.93;1776334;79;21082;-66
2021/07/08 06:29:48;;;;;;;2.87;1.17;;;;;;;36.69;28.58;100965.87;1773366;79;21126;-62
2021/07/08 06:32:18;;;;;;;4.87;1.50;;;;;;;36.34;29.32;100975.06;1776080;79;21022;-66
2021/07/08 06:34:44;;;;;;;1.72;1.10;;;;;;;36.36;30.07;100972.20;1772735;79;21532;-67
2021/07/08 06:37:11;;;;;;;4.40;2.00;;;;;;;36.51;30.67;100957.97;1772238;79;21027;-61
2021/07/08 06:39:38;;;;;;;3.70;2.20;;;;;;;36.81;30.46;100967.77;1774120;79;21081;-67
2021/07/08 06:42:05;;;;;;;2.47;1.60;;;;;;;37.20;28.42;100968.89;1770738;79;21210;-61
2021/07/08 06:44:32;;;;;;;1.92;1.35;;;;;;;37.19;27.93;100972.76;1773262;79;21122;-66
2021/07/08 06:46:59;;;;;;;2.10;1.15;;;;;;;37.19;27.45;100975.48;1772050;79;21022;-67
2021/07/08 06:49:25;;;;;;;2.40;1.35;;;;;;;36.89;26.66;100967.62;1770711;79;21512;-66
2021/07/08 06:51:52;;;;;;;3.47;1.42;;;;;;;36.62;27.75;100970.52;1775288;79;21057;-67
2021/07/08 06:54:19;;;;;;;2.83;1.72;;;;;;;36.64;27.23;100971.55;1767963;79;21220;-65
2021/07/08 06:56:46;;;;;;;3.65;1.45;;;;;;;36.49;27.77;100966.25;1773144;79;21076;-66
2021/07/08 06:59:13;;;;;;;2.95;1.45;;;;;;;36.70;27.36;100970.95;1770109;80;20983;-63
2021/07/08 07:01:40;;;;;;;2.80;1.52;;;;;;;36.76;28.29;100974.23;1772280;79;21034;-67
2021/07/08 07:04:06;;;;;;;3.52;1.42;;;;;;;36.80;26.67;100966.19;1771451;80;22057;-67
2021/07/08 07:06:33;;;;;;;2.25;1.45;;;;;;;36.72;27.25;100966.55;1744104;81;21525;-67
2021/07/08 07:09:01;;;;;;;3.20;1.65;;;;;;;37.01;26.25;100963.55;1751334;80;21180;-67
2021/07/08 07:11:27;;;;;;;2.25;1.30;;;;;;;37.16;26.15;100963.92;1779963;79;21035;-61
2021/07/08 07:13:54;;;;;;;4.00;1.50;;;;;;;37.16;26.05;100966.65;1782807;79;21001;-66
2021/07/08 07:16:22;;;;;;;1.92;1.10;;;;;;;37.59;26.64;100959.69;1781220;79;20990;-60
2021/07/08 07:18:50;;;;;;;3.27;1.65;;;;;;;37.94;25.92;100963.31;1778307;79;22661;-66
2021/07/08 07:21:17;;;;;;;3.27;1.10;;;;;;;37.87;26.25;100961.75;1780036;79;20990;-66
2021/07/08 07:23:46;;;;;;;2.60;1.20;;;;;;;38.05;24.71;100959.49;1776686;79;20959;-65
2021/07/08 07:26:13;;;;;;;3.00;1.40;;;;;;;37.97;23.96;100964.55;1783111;78;21065;-66
2021/07/08 07:28:40;;;;;;;3.60;1.42;;;;;;;37.95;25.49;100958.08;1783077;79;20974;-67
2021/07/08 07:31:07;;;;;;;3.33;1.52;;;;;;;37.95;24.08;100954.00;1782391;78;21147;-67
2021/07/08 07:33:33;;;;;;;2.05;1.30;;;;;;;37.69;24.71;100958.57;1758282;80;20971;-62
2021/07/08 07:36:02;;;;;;;2.52;1.30;;;;;;;37.35;24.77;100953.19;1757573;80;20955;-67
2021/07/08 07:38:29;;;;;;;4.50;1.32;;;;;;;37.36;25.16;100954.00;1752572;80;21121;-62
2021/07/08 07:40:56;;;;;;;4.78;1.85;;;;;;;37.26;26.52;100958.79;1752885;80;20931;-69
2021/07/08 07:43:23;;;;;;;3.45;1.30;;;;;;;37.83;24.70;100953.28;1755752;80;21579;-62
2021/07/08 07:45:50;;;;;;;5.53;1.50;;;;;;;38.07;25.16;100957.77;1783900;80;21031;-68
2021/07/08 07:48:17;;;;;;;2.47;1.37;;;;;;;38.04;25.05;100960.64;1784297;79;21010;-67
2021/07/08 07:50:44;;;;;;;3.40;1.32;;;;;;;38.02;23.65;100956.69;1783804;79;21041;-65
2021/07/08 07:53:10;;;;;;;4.15;2.83;;;;;;;37.52;24.72;100956.78;1784268;80;21504;-67
2021/07/08 07:55:38;;;;;;;2.85;1.30;;;;;;;37.43;24.90;100969.97;1782878;79;21149;-68
2021/07/08 07:58:05;;;;;;;10.70;8.28;;;;;;;37.26;24.48;100966.16;1781019;79;20977;-68
2021/07/08 08:00:32;;;;;;;14.28;11.35;;;;;;;37.34;23.56;100967.93;1784373;79;20947;-68
2021/07/08 08:02:59;;;;;;;23.90;21.62;;;;;;;37.06;23.73;100975.31;1783758;80;21500;-68
2021/07/08 08:10:39;;;;;;;7.97;5.40;;;;;;;36.74;23.58;100973.20;1783251;80;20969;-67
2021/07/08 08:13:06;;;;;;;13.55;9.10;;;;;;;36.71;22.58;100965.76;1784252;79;21271;-69
2021/07/08 08:15:32;;;;;;;12.43;7.25;;;;;;;36.77;22.32;100970.38;1782497;80;21499;-70
2021/07/08 08:18:01;;;;;;;8.68;6.12;;;;;;;36.19;23.22;100975.17;1783346;80;20965;-69
2021/07/08 08:20:30;;;;;;;9.70;6.85;;;;;;;36.37;24.24;100982.50;1783289;80;21160;-66
2021/07/08 08:22:56;;;;;;;11.90;7.65;;;;;;;36.61;23.54;100970.87;1781622;79;21096;-67
2021/07/08 08:25:23;;;;;;;7.62;5.17;;;;;;;36.73;23.18;100966.77;1782798;80;21026;-65
2021/07/08 08:27:49;;;;;;;7.42;3.08;;;;;;;36.51;23.16;100964.75;1778762;80;20971;-63
2021/07/08 08:30:16;;;;;;;3.62;2.50;;;;;;;36.44;22.83;100975.36;1779457;80;20998;-65
2021/07/08 08:32:43;;;;;;;5.25;3.05;;;;;;;36.26;23.39;100968.61;1778531;80;21375;-65
2021/07/08 08:35:10;;;;;;;5.25;2.35;;;;;;;36.44;23.23;100956.92;1779832;80;21334;-65
2021/07/08 08:37:40;;;;;;;2.92;2.17;;;;;;;36.53;23.46;100961.14;1779724;80;21476;-66
2021/07/08 08:40:09;;;;;;;8.15;3.15;;;;;;;36.46;23.43;100960.11;1778270;79;21424;-62
2021/07/08 08:42:36;;;;;;;5.50;3.55;;;;;;;36.46;24.07;100966.89;1779493;80;21298;-62
2021/07/08 08:45:07;;;;;;;7.25;5.37;;;;;;;36.54;23.75;100949.14;1779832;80;21597;-66
2021/07/08 08:47:33;;;;;;;6.22;4.58;;;;;;;36.44;24.59;100959.64;1777090;80;20999;-66
2021/07/08 08:50:02;;;;;;;8.20;5.67;;;;;;;36.10;24.73;100961.69;1752529;80;21036;-62
2021/07/08 08:52:29;;;;;;;8.15;2.60;;;;;;;36.30;24.05;100961.37;1779193;80;21015;-62
2021/07/08 08:54:55;;;;;;;3.35;1.72;;;;;;;36.24;24.39;100954.00;1779254;80;20981;-67
2021/07/08 08:57:24;;;;;;;3.50;2.10;;;;;;;35.82;24.49;100962.89;1779497;80;21001;-67
2021/07/08 08:59:50;;;;;;;2.77;1.60;;;;;;;35.83;24.25;100967.17;1779530;80;21044;-68
2021/07/08 09:02:20;;;;;;;4.25;2.10;;;;;;;35.82;24.44;100960.17;1779182;80;21000;-64
2021/07/08 09:04:48;;;;;;;4.30;1.90;;;;;;;35.46;25.98;100961.66;1778963;80;21377;-66
2021/07/08 09:07:31;;;;;;;4.30;2.05;;;;;;;35.85;26.13;100953.30;1779973;80;21005;-66
2021/07/08 09:09:59;;;;;;;3.50;1.70;;;;;;;36.26;25.78;100949.04;1779361;80;21132;-65
2021/07/08 09:12:27;;;;;;;5.10;1.95;;;;;;;36.70;25.74;100942.99;1778881;80;21288;-64
2021/07/08 09:15:16;;;;;;;3.12;1.80;;;;;;;37.03;26.12;100948.82;1779917;80;21774;-65
2021/07/08 09:17:43;;;;;;;2.85;1.80;;;;;;;37.09;25.44;100953.67;1779464;80;21095;-65
2021/07/08 09:20:14;;;;;;;2.37;1.60;;;;;;;36.95;24.92;100943.18;1783285;79;21075;-63
2021/07/08 09:22:41;;;;;;;4.80;2.00;;;;;;;37.03;24.38;100947.46;1778726;79;21215;-64
2021/07/08 09:25:26;;;;;;;3.22;1.75;;;;;;;36.87;24.19;100941.38;1746396;80;21047;-64
2021/07/08 09:28:15;;;;;;;1.98;1.35;;;;;;;36.74;23.94;100944.67;1746335;80;22401;-65
2021/07/08 09:30:43;;;;;;;2.87;1.55;;;;;;;36.39;24.49;100947.09;1745144;80;21125;-64
2021/07/08 09:33:36;;;;;;;2.90;1.65;;;;;;;36.56;23.87;100950.71;1743756;80;20987;-66
2021/07/08 09:36:15;;;;;;;2.10;1.75;;;;;;;36.85;23.75;100948.28;1777051;79;21166;-65
2021/07/08 09:38:45;;;;;;;;;;;;;;;37.24;23.88;100951.56;1781403;79;21422;-66
2021/07/08 09:41:18;;;;;;;4.17;2.20;;;;;;;37.40;23.51;100944.80;1753077;80;20469;-64
2021/07/08 09:43:49;;;;;;;3.58;1.70;;;;;;;37.02;23.91;100956.19;1776655;79;20973;-65
2021/07/08 09:46:15;;;;;;;;;;;;;;;36.62;24.33;100952.86;1782478;79;20922;-65
2021/07/08 09:49:06;;;;;;;3.95;1.75;;;;;;;36.51;25.03;100951.17;1772305;80;20811;-65
2021/07/08 09:51:34;;;;;;;3.80;1.77;;;;;;;36.16;25.75;100960.91;1778274;79;20878;-64
2021/07/08 09:54:07;;;;;;;3.87;2.10;;;;;;;36.04;26.11;100957.06;1773839;80;20950;-65
2021/07/08 09:56:46;;;;;;;3.30;1.90;;;;;;;35.94;26.00;100952.61;1772592;79;20950;-67
2021/07/08 09:59:11;;;;;;;4.30;2.08;;;;;;;35.94;26.19;100943.91;1769753;79;22187;-67
2021/07/08 10:01:37;;;;;;;6.10;1.70;;;;;;;36.49;26.36;100939.09;1773616;79;21187;-66
2021/07/08 10:04:05;;;;;;;4.58;1.62;;;;;;;36.46;26.44;100935.67;1769004;79;20918;-66
2021/07/08 10:06:33;;;;;;;5.62;2.15;;;;;;;36.66;26.33;100933.95;1770631;80;21061;-65
2021/07/08 10:09:00;;;;;;;3.17;1.72;;;;;;;36.46;25.39;100932.95;1767487;79;21080;-66
2021/07/08 10:11:27;;;;;;;3.20;1.80;;;;;;;35.28;25.42;100937.20;1771826;79;20973;-65
2021/07/08 10:13:57;;;;;;;2.75;1.80;;;;;;;34.83;26.56;100931.09;1769404;80;20914;-67
2021/07/08 10:16:23;;;;;;;3.27;1.72;;;;;;;34.26;28.29;100928.33;1768174;80;21599;-62
2021/07/08 10:18:50;;;;;;;5.45;2.05;;;;;;;34.34;28.24;100941.02;1770936;80;21608;-67
2021/07/08 10:21:18;;;;;;;2.87;1.60;;;;;;;34.99;26.48;100922.61;1771495;80;20981;-65
2021/07/08 10:23:46;;;;;;;2.87;1.67;;;;;;;34.53;27.84;100927.64;1770417;80;22487;-67
2021/07/08 10:26:13;;;;;;;3.20;1.80;;;;;;;34.37;27.37;100926.04;1772754;80;21138;-62
2021/07/08 10:28:46;;;;;;;2.75;1.80;;;;;;;34.48;27.13;100923.75;1773017;80;20992;-64
2021/07/08 10:31:20;;;;;;;3.52;1.72;;;;;;;34.37;27.03;100913.30;1775256;80;21135;-65
2021/07/08 10:34:11;;;;;;;2.20;1.80;;;;;;;34.24;28.67;100912.17;1771654;80;21045;-68
2021/07/08 10:36:41;;;;;;;3.83;1.77;;;;;;;34.84;28.38;100911.79;1771418;80;21471;-66
2021/07/08 10:39:14;;;;;;;4.90;1.77;;;;;;;34.61;29.12;100918.09;1772936;80;20958;-69
2021/07/08 10:41:44;;;;;;;3.33;1.92;;;;;;;34.37;30.07;100911.94;1772303;80;21068;-68
2021/07/08 10:44:47;;;;;;;3.47;1.77;;;;;;;35.08;29.23;100903.56;1772090;80;21318;-64
2021/07/08 10:47:33;;;;;;;3.90;1.72;;;;;;;35.45;28.08;100908.53;1762668;80;22283;-66
2021/07/08 10:50:01;;;;;;;8.20;2.10;;;;;;;35.65;28.06;100906.93;1770246;80;21075;-63
2021/07/08 10:52:47;;;;;;;5.12;2.02;;;;;;;35.29;28.52;100912.45;1779542;80;21125;-60
2021/07/08 10:55:38;;;;;;;3.10;1.90;;;;;;;35.45;27.64;100909.10;1777981;79;21996;-63
2021/07/08 10:58:06;;;;;;;3.37;1.80;;;;;;;35.76;29.13;100914.86;1746253;80;21099;-63
2021/07/08 11:00:48;;;;;;;5.55;2.00;;;;;;;36.29;27.26;100904.93;1779111;79;21358;-62
2021/07/08 11:03:38;;;;;;;2.40;1.50;;;;;;;36.37;26.84;100910.55;1779853;80;21515;-63
2021/07/08 11:06:16;;;;;;;2.67;1.80;;;;;;;35.91;26.84;100913.38;1778971;80;21159;-59
2021/07/08 11:08:52;;;;;;;3.50;1.90;;;;;;;35.50;26.81;100908.37;1777457;80;20986;-62
2021/07/08 11:11:25;;;;;;;3.42;1.90;;;;;;;35.43;26.83;100905.39;1780772;80;21646;-63
2021/07/08 11:13:54;;;;;;;2.22;1.50;;;;;;;35.26;27.04;100902.84;1779230;80;20997;-63
2021/07/08 11:16:46;;;;;;;4.30;1.98;;;;;;;35.26;27.66;100895.50;1780417;80;21362;-63
2021/07/08 11:19:19;;;;;;;2.95;1.55;;;;;;;35.32;27.53;100900.16;1779669;80;21468;-63
2021/07/08 11:21:53;;;;;;;2.60;1.60;;;;;;;35.42;27.53;100898.39;1780206;80;21073;-64
2021/07/08 11:24:26;;;;;;;3.10;1.80;;;;;;;35.42;27.66;100898.39;1780511;80;21041;-64
2021/07/08 11:26:54;;;;;;;4.05;2.15;;;;;;;35.50;27.48;100896.17;1777091;80;21068;-68
2021/07/08 11:29:42;;;;;;;4.42;1.95;;;;;;;35.47;26.97;100892.73;1779260;80;21091;-65
2021/07/08 11:32:30;;;;;;;4.25;2.17;;;;;;;35.64;27.03;100893.69;1778995;79;21113;-66
2021/07/08 11:35:12;;;;;;;2.60;1.85;;;;;;;35.80;28.11;100898.67;1781219;79;21287;-64
2021/07/08 11:37:39;;;;;;;3.87;2.02;;;;;;;35.66;27.14;100893.59;1779334;79;21029;-66
2021/07/08 11:40:16;;;;;;;3.42;2.17;;;;;;;35.28;27.06;100894.61;1779033;80;21038;-66